Ruby, South Carolina
Current Conditions -  °F | °C
As of 8:15 AM on Sunday 23 Nov 2014 (Local Time) from KCQW Reporting Station
Light Rain Light Rain  
Wind Chill: 41°   Ceiling: 2100
Heat Index: 41°   Visibility: 2.5mi
Dew Point: 41°   Wind: 0mph
Humidity: 100%   Direction: NA
Pressure: 30.22"   Gusts: NA
Location:  34.75°N, 80.18°W
Report Text: KCQW 231315Z AUTO 00000KT 2 1/2SM -RA BKN021 05/05 A3022 RMK AO2
Loading
Personal Weather Stations






























Interactive Weather Map New forecast layout! Learn more

10-Day Weather Forecast

Advertisements
Track Severe Weather on mobile